Zion, Virginia
Current Conditions -  °F | °C
As of 4:15 PM on Monday 24 Nov 2014 (Local Time) from KGVE Reporting Station
Clear Clear  
Wind Chill: 70°   Ceiling: Unl
Heat Index: 70°   Visibility: 10mi
Dew Point: 53°   Wind: 13mph
Humidity: 55%   Direction: 200°SSW
Pressure: 29.65"   Gusts: NA
Location:  38.0919°N, 78.1851°W
Report Text: KGVE 242115Z AUTO 20011KT 10SM CLR 21/12 A2965 RMK AO1 T02100116
Loading
Personal Weather Stations






























Interactive Weather Map New forecast layout! Learn more

10-Day Weather Forecast

Advertisements
Track Severe Weather on mobile